Zheleznogorsk, Russia
Current Conditions -  °F | °C
As of 7:30 PM on Sunday 21 Dec 2014 (Local Time) from UUOB Reporting Station
Haze Haze  
Wind Chill: 24°   Ceiling: 600
Heat Index: 32°   Visibility: 2.5mi
Dew Point: 32°   Wind: 9mph
Humidity: 100%   Direction: 230°SW
Pressure: 29.74"   Gusts: NA
Location:  52.35°N, 35.41°E
Report Text: UUOB 211630Z 23004MPS 4000 BR BKN006CB 00/M00 Q1007 29290057NOSIG
Loading
Personal Weather Stations






























Interactive Weather Map New forecast layout! Learn more

10-Day Weather Forecast

Advertisements
Track Severe Weather on mobile